sensor_id;sensor_type;location;lat;lon;timestamp;pressure;altitude;pressure_sealevel;temperature;humidity
30724;BME280;17473;52.286;20.930;2022-12-17T00:02:17;100368.47;;;-1.21;79.73
30724;BME280;17473;52.286;20.930;2022-12-17T00:05:04;100375.22;;;-1.23;80.24
30724;BME280;17473;52.286;20.930;2022-12-17T00:07:59;100381.84;;;-1.27;80.31
30724;BME280;17473;52.286;20.930;2022-12-17T00:10:45;100368.31;;;-1.23;80.49
30724;BME280;17473;52.286;20.930;2022-12-17T00:13:31;100364.59;;;-1.27;80.08
30724;BME280;17473;52.286;20.930;2022-12-17T00:16:17;100369.88;;;-1.25;80.21
30724;BME280;17473;52.286;20.930;2022-12-17T00:19:03;100372.72;;;-1.22;80.24
30724;BME280;17473;52.286;20.930;2022-12-17T00:21:49;100382.84;;;-1.25;80.42
30724;BME280;17473;52.286;20.930;2022-12-17T00:24:35;100381.28;;;-1.23;80.35
30724;BME280;17473;52.286;20.930;2022-12-17T00:27:22;100376.25;;;-1.21;80.97
30724;BME280;17473;52.286;20.930;2022-12-17T00:30:08;100373.03;;;-1.29;81.25
30724;BME280;17473;52.286;20.930;2022-12-17T00:32:53;100367.28;;;-1.25;81.13
30724;BME280;17473;52.286;20.930;2022-12-17T00:35:39;100380.81;;;-1.29;81.38
30724;BME280;17473;52.286;20.930;2022-12-17T00:38:25;100392.44;;;-1.34;81.64
30724;BME280;17473;52.286;20.930;2022-12-17T00:41:11;100389.88;;;-1.34;82.07
30724;BME280;17473;52.286;20.930;2022-12-17T00:43:57;100399.44;;;-1.33;81.91
30724;BME280;17473;52.286;20.930;2022-12-17T00:46:43;100403.09;;;-1.31;82.04
30724;BME280;17473;52.286;20.930;2022-12-17T00:49:28;100411.63;;;-1.32;82.21
30724;BME280;17473;52.286;20.930;2022-12-17T00:52:14;100407.97;;;-1.24;82.10
30724;BME280;17473;52.286;20.930;2022-12-17T00:55:00;100419.78;;;-1.28;82.18
30724;BME280;17473;52.286;20.930;2022-12-17T00:57:46;100407.59;;;-1.29;81.92
30724;BME280;17473;52.286;20.930;2022-12-17T01:00:36;100413.72;;;-1.28;82.15
30724;BME280;17473;52.286;20.930;2022-12-17T01:03:22;100423.28;;;-1.27;82.14
30724;BME280;17473;52.286;20.930;2022-12-17T01:06:08;100419.94;;;-1.26;82.47
30724;BME280;17473;52.286;20.930;2022-12-17T01:08:54;100419.94;;;-1.26;82.57
30724;BME280;17473;52.286;20.930;2022-12-17T01:11:40;100422.75;;;-1.23;82.04
30724;BME280;17473;52.286;20.930;2022-12-17T01:14:26;100419.25;;;-1.23;82.54
30724;BME280;17473;52.286;20.930;2022-12-17T01:17:12;100425.09;;;-1.26;82.96
30724;BME280;17473;52.286;20.930;2022-12-17T01:19:57;100433.88;;;-1.24;82.79
30724;BME280;17473;52.286;20.930;2022-12-17T01:22:44;100427.94;;;-1.23;82.94
30724;BME280;17473;52.286;20.930;2022-12-17T01:25:30;100425.59;;;-1.20;83.05
30724;BME280;17473;52.286;20.930;2022-12-17T01:28:23;100411.50;;;-1.23;82.61
30724;BME280;17473;52.286;20.930;2022-12-17T01:31:10;100400.22;;;-1.34;83.25
30724;BME280;17473;52.286;20.930;2022-12-17T01:34:01;100404.13;;;-1.29;82.97
30724;BME280;17473;52.286;20.930;2022-12-17T01:36:46;100425.22;;;-1.24;82.81
30724;BME280;17473;52.286;20.930;2022-12-17T01:39:32;100420.69;;;-1.27;83.24
30724;BME280;17473;52.286;20.930;2022-12-17T01:42:18;100429.84;;;-1.20;82.63
30724;BME280;17473;52.286;20.930;2022-12-17T01:45:09;100428.59;;;-1.26;83.04
30724;BME280;17473;52.286;20.930;2022-12-17T01:47:59;100434.66;;;-1.25;83.24
30724;BME280;17473;52.286;20.930;2022-12-17T01:50:52;100440.00;;;-1.23;83.27
30724;BME280;17473;52.286;20.930;2022-12-17T01:53:48;100430.91;;;-1.29;83.39
30724;BME280;17473;52.286;20.930;2022-12-17T01:56:37;100431.84;;;-1.28;83.41
30724;BME280;17473;52.286;20.930;2022-12-17T01:59:37;100441.44;;;-1.27;83.73
30724;BME280;17473;52.286;20.930;2022-12-17T02:02:26;100447.41;;;-1.28;83.50
30724;BME280;17473;52.286;20.930;2022-12-17T02:05:12;100447.50;;;-1.27;83.51
30724;BME280;17473;52.286;20.930;2022-12-17T02:11:28;100448.94;;;-1.30;83.69
30724;BME280;17473;52.286;20.930;2022-12-17T02:14:22;100467.09;;;-1.30;83.64
30724;BME280;17473;52.286;20.930;2022-12-17T02:17:18;100455.16;;;-1.28;83.77
30724;BME280;17473;52.286;20.930;2022-12-17T02:20:29;100460.88;;;-1.32;83.96
30724;BME280;17473;52.286;20.930;2022-12-17T02:26:52;100444.16;;;-1.36;83.83
30724;BME280;17473;52.286;20.930;2022-12-17T02:29:50;100451.94;;;-1.36;83.98
30724;BME280;17473;52.286;20.930;2022-12-17T02:32:40;100446.34;;;-1.20;83.46
30724;BME280;17473;52.286;20.930;2022-12-17T02:35:36;100442.69;;;-1.22;83.20
30724;BME280;17473;52.286;20.930;2022-12-17T02:38:29;100437.81;;;-1.29;83.11
30724;BME280;17473;52.286;20.930;2022-12-17T02:41:24;100433.66;;;-1.27;83.16
30724;BME280;17473;52.286;20.930;2022-12-17T02:44:12;100434.94;;;-1.32;83.51
30724;BME280;17473;52.286;20.930;2022-12-17T02:46:59;100434.66;;;-1.25;82.91
30724;BME280;17473;52.286;20.930;2022-12-17T02:49:46;100443.75;;;-1.30;82.59
30724;BME280;17473;52.286;20.930;2022-12-17T02:52:38;100440.50;;;-1.28;82.46
30724;BME280;17473;52.286;20.930;2022-12-17T02:55:24;100444.44;;;-1.33;82.85
30724;BME280;17473;52.286;20.930;2022-12-17T02:58:09;100433.91;;;-1.34;82.89
30724;BME280;17473;52.286;20.930;2022-12-17T03:00:55;100429.16;;;-1.40;83.21
30724;BME280;17473;52.286;20.930;2022-12-17T03:03:40;100431.88;;;-1.38;82.69
30724;BME280;17473;52.286;20.930;2022-12-17T03:06:26;100425.75;;;-1.39;82.43
30724;BME280;17473;52.286;20.930;2022-12-17T03:09:12;100436.66;;;-1.43;82.71
30724;BME280;17473;52.286;20.930;2022-12-17T03:11:58;100443.66;;;-1.42;82.27
30724;BME280;17473;52.286;20.930;2022-12-17T03:14:43;100440.16;;;-1.43;82.17
30724;BME280;17473;52.286;20.930;2022-12-17T03:17:29;100437.31;;;-1.46;81.94
30724;BME280;17473;52.286;20.930;2022-12-17T03:20:15;100443.41;;;-1.45;80.99
30724;BME280;17473;52.286;20.930;2022-12-17T03:23:07;100445.22;;;-1.44;80.84
30724;BME280;17473;52.286;20.930;2022-12-17T03:25:57;100444.84;;;-1.49;80.90
30724;BME280;17473;52.286;20.930;2022-12-17T03:28:42;100447.44;;;-1.49;80.34
30724;BME280;17473;52.286;20.930;2022-12-17T03:31:28;100456.75;;;-1.51;80.06
30724;BME280;17473;52.286;20.930;2022-12-17T03:34:14;100456.63;;;-1.52;80.37
30724;BME280;17473;52.286;20.930;2022-12-17T03:36:59;100456.63;;;-1.63;80.62
30724;BME280;17473;52.286;20.930;2022-12-17T03:39:45;100451.56;;;-1.61;80.57
30724;BME280;17473;52.286;20.930;2022-12-17T03:42:30;100453.38;;;-1.60;79.88
30724;BME280;17473;52.286;20.930;2022-12-17T03:45:16;100460.66;;;-1.56;79.73
30724;BME280;17473;52.286;20.930;2022-12-17T03:48:13;100464.41;;;-1.63;79.84
30724;BME280;17473;52.286;20.930;2022-12-17T03:50:59;100447.22;;;-1.62;79.74
30724;BME280;17473;52.286;20.930;2022-12-17T03:53:46;100450.69;;;-1.62;80.02
30724;BME280;17473;52.286;20.930;2022-12-17T03:56:32;100449.25;;;-1.68;79.70
30724;BME280;17473;52.286;20.930;2022-12-17T03:59:17;100457.03;;;-1.68;79.71
30724;BME280;17473;52.286;20.930;2022-12-17T04:02:03;100467.78;;;-1.74;79.73
30724;BME280;17473;52.286;20.930;2022-12-17T04:04:49;100476.84;;;-1.69;79.20
30724;BME280;17473;52.286;20.930;2022-12-17T04:07:40;100463.53;;;-1.74;79.17
30724;BME280;17473;52.286;20.930;2022-12-17T04:10:43;100437.13;;;-1.80;79.57
30724;BME280;17473;52.286;20.930;2022-12-17T04:13:28;100444.22;;;-1.77;79.32
30724;BME280;17473;52.286;20.930;2022-12-17T04:16:14;100443.56;;;-1.75;78.88
30724;BME280;17473;52.286;20.930;2022-12-17T04:19:00;100458.59;;;-1.70;78.89
30724;BME280;17473;52.286;20.930;2022-12-17T04:21:46;100469.59;;;-1.73;79.12
30724;BME280;17473;52.286;20.930;2022-12-17T04:24:31;100470.78;;;-1.80;78.62
30724;BME280;17473;52.286;20.930;2022-12-17T04:27:17;100472.06;;;-1.75;78.72
30724;BME280;17473;52.286;20.930;2022-12-17T04:30:03;100482.41;;;-1.75;78.32
30724;BME280;17473;52.286;20.930;2022-12-17T04:32:49;100475.69;;;-1.83;78.46
30724;BME280;17473;52.286;20.930;2022-12-17T04:35:34;100506.50;;;-1.76;78.12
30724;BME280;17473;52.286;20.930;2022-12-17T04:38:20;100508.03;;;-1.78;78.53
30724;BME280;17473;52.286;20.930;2022-12-17T04:41:06;100519.31;;;-1.77;78.56
30724;BME280;17473;52.286;20.930;2022-12-17T04:43:51;100515.28;;;-1.84;78.37
30724;BME280;17473;52.286;20.930;2022-12-17T04:46:45;100517.50;;;-1.78;78.44
30724;BME280;17473;52.286;20.930;2022-12-17T04:49:30;100525.78;;;-1.82;78.38
30724;BME280;17473;52.286;20.930;2022-12-17T04:52:16;100529.69;;;-1.77;78.22
30724;BME280;17473;52.286;20.930;2022-12-17T04:55:02;100535.25;;;-1.83;78.49
30724;BME280;17473;52.286;20.930;2022-12-17T04:57:48;100545.06;;;-1.79;78.72
30724;BME280;17473;52.286;20.930;2022-12-17T05:00:34;100550.63;;;-1.74;78.39
30724;BME280;17473;52.286;20.930;2022-12-17T05:03:19;100565.00;;;-1.78;78.20
30724;BME280;17473;52.286;20.930;2022-12-17T05:06:07;100569.56;;;-1.75;78.60
30724;BME280;17473;52.286;20.930;2022-12-17T05:08:53;100566.31;;;-1.73;78.41
30724;BME280;17473;52.286;20.930;2022-12-17T05:11:39;100577.06;;;-1.78;78.70
30724;BME280;17473;52.286;20.930;2022-12-17T05:14:25;100582.13;;;-1.80;78.27
30724;BME280;17473;52.286;20.930;2022-12-17T05:17:10;100588.84;;;-1.82;78.23
30724;BME280;17473;52.286;20.930;2022-12-17T05:19:56;100592.19;;;-1.83;78.15
30724;BME280;17473;52.286;20.930;2022-12-17T05:22:41;100587.78;;;-1.84;78.22
30724;BME280;17473;52.286;20.930;2022-12-17T05:25:27;100593.63;;;-1.86;78.14
30724;BME280;17473;52.286;20.930;2022-12-17T05:28:12;100588.84;;;-1.82;78.29
30724;BME280;17473;52.286;20.930;2022-12-17T05:30:58;100590.00;;;-1.78;77.82
30724;BME280;17473;52.286;20.930;2022-12-17T05:33:44;100581.97;;;-1.81;78.04
30724;BME280;17473;52.286;20.930;2022-12-17T05:36:34;100584.84;;;-1.78;77.76
30724;BME280;17473;52.286;20.930;2022-12-17T05:39:20;100577.72;;;-1.81;77.77
30724;BME280;17473;52.286;20.930;2022-12-17T05:42:05;100576.16;;;-1.68;77.42
30724;BME280;17473;52.286;20.930;2022-12-17T05:44:51;100578.72;;;-1.79;77.56
30724;BME280;17473;52.286;20.930;2022-12-17T05:47:36;100583.66;;;-1.82;77.84
30724;BME280;17473;52.286;20.930;2022-12-17T05:50:22;100579.13;;;-1.84;77.85
30724;BME280;17473;52.286;20.930;2022-12-17T05:53:08;100582.88;;;-1.81;77.65
30724;BME280;17473;52.286;20.930;2022-12-17T05:55:54;100582.25;;;-1.78;77.83
30724;BME280;17473;52.286;20.930;2022-12-17T05:58:39;100580.91;;;-1.83;77.77
30724;BME280;17473;52.286;20.930;2022-12-17T06:01:25;100594.41;;;-1.77;77.73
30724;BME280;17473;52.286;20.930;2022-12-17T06:04:10;100589.34;;;-1.76;77.69
30724;BME280;17473;52.286;20.930;2022-12-17T06:06:56;100590.91;;;-1.78;77.66
30724;BME280;17473;52.286;20.930;2022-12-17T06:09:42;100577.94;;;-1.78;77.75
30724;BME280;17473;52.286;20.930;2022-12-17T06:12:28;100586.88;;;-1.74;77.56
30724;BME280;17473;52.286;20.930;2022-12-17T06:15:13;100592.88;;;-1.75;77.52
30724;BME280;17473;52.286;20.930;2022-12-17T06:17:59;100593.66;;;-1.76;77.35
30724;BME280;17473;52.286;20.930;2022-12-17T06:20:45;100591.56;;;-1.80;77.52
30724;BME280;17473;52.286;20.930;2022-12-17T06:23:30;100591.81;;;-1.77;77.66
30724;BME280;17473;52.286;20.930;2022-12-17T06:26:17;100598.03;;;-1.85;77.75
30724;BME280;17473;52.286;20.930;2022-12-17T06:29:03;100603.44;;;-1.82;78.15
30724;BME280;17473;52.286;20.930;2022-12-17T06:31:49;100612.91;;;-1.83;77.78
30724;BME280;17473;52.286;20.930;2022-12-17T06:34:34;100624.81;;;-1.85;77.92
30724;BME280;17473;52.286;20.930;2022-12-17T06:37:20;100630.50;;;-1.89;78.12
30724;BME280;17473;52.286;20.930;2022-12-17T06:40:07;100636.31;;;-1.92;78.21
30724;BME280;17473;52.286;20.930;2022-12-17T06:42:56;100650.56;;;-1.86;77.87
30724;BME280;17473;52.286;20.930;2022-12-17T06:45:42;100656.00;;;-1.83;77.87
30724;BME280;17473;52.286;20.930;2022-12-17T06:48:27;100665.38;;;-1.75;77.85
30724;BME280;17473;52.286;20.930;2022-12-17T06:51:13;100666.34;;;-1.83;77.87
30724;BME280;17473;52.286;20.930;2022-12-17T06:53:59;100661.44;;;-1.91;78.08
30724;BME280;17473;52.286;20.930;2022-12-17T06:56:44;100662.50;;;-1.78;77.63
30724;BME280;17473;52.286;20.930;2022-12-17T06:59:30;100654.88;;;-1.77;77.66
30724;BME280;17473;52.286;20.930;2022-12-17T07:02:15;100649.44;;;-1.80;77.50
30724;BME280;17473;52.286;20.930;2022-12-17T07:05:01;100663.44;;;-1.67;76.81
30724;BME280;17473;52.286;20.930;2022-12-17T07:07:47;100675.84;;;-1.74;76.70
30724;BME280;17473;52.286;20.930;2022-12-17T07:10:32;100682.53;;;-1.86;76.79
30724;BME280;17473;52.286;20.930;2022-12-17T07:13:19;100680.72;;;-1.87;76.85
30724;BME280;17473;52.286;20.930;2022-12-17T07:16:06;100678.81;;;-1.79;76.29
30724;BME280;17473;52.286;20.930;2022-12-17T07:18:51;100682.69;;;-1.84;76.65
30724;BME280;17473;52.286;20.930;2022-12-17T07:21:37;100673.47;;;-1.91;76.67
30724;BME280;17473;52.286;20.930;2022-12-17T07:24:23;100676.31;;;-1.88;76.67
30724;BME280;17473;52.286;20.930;2022-12-17T07:27:09;100663.53;;;-1.86;76.26
30724;BME280;17473;52.286;20.930;2022-12-17T07:29:54;100676.06;;;-1.91;76.88
30724;BME280;17473;52.286;20.930;2022-12-17T07:32:40;100676.97;;;-1.91;76.51
30724;BME280;17473;52.286;20.930;2022-12-17T07:35:25;100681.38;;;-1.90;75.88
30724;BME280;17473;52.286;20.930;2022-12-17T07:38:12;100684.34;;;-1.85;75.95
30724;BME280;17473;52.286;20.930;2022-12-17T07:40:58;100689.81;;;-1.82;75.56
30724;BME280;17473;52.286;20.930;2022-12-17T07:43:44;100704.03;;;-1.87;75.64
30724;BME280;17473;52.286;20.930;2022-12-17T07:46:29;100706.13;;;-1.83;75.38
30724;BME280;17473;52.286;20.930;2022-12-17T07:49:15;100721.00;;;-1.80;75.89
30724;BME280;17473;52.286;20.930;2022-12-17T07:52:00;100721.41;;;-1.76;75.56
30724;BME280;17473;52.286;20.930;2022-12-17T07:54:46;100725.78;;;-1.85;75.40
30724;BME280;17473;52.286;20.930;2022-12-17T07:57:31;100733.56;;;-1.85;75.24
30724;BME280;17473;52.286;20.930;2022-12-17T08:00:17;100721.00;;;-1.80;75.54
30724;BME280;17473;52.286;20.930;2022-12-17T08:03:03;100722.56;;;-1.82;75.25
30724;BME280;17473;52.286;20.930;2022-12-17T08:05:48;100732.44;;;-1.78;75.08
30724;BME280;17473;52.286;20.930;2022-12-17T08:08:34;100731.38;;;-1.80;75.09
30724;BME280;17473;52.286;20.930;2022-12-17T08:11:20;100727.47;;;-1.85;75.20
30724;BME280;17473;52.286;20.930;2022-12-17T08:14:05;100730.19;;;-1.84;74.77
30724;BME280;17473;52.286;20.930;2022-12-17T08:16:51;100732.03;;;-1.83;74.89
30724;BME280;17473;52.286;20.930;2022-12-17T08:19:37;100733.88;;;-1.71;74.16
30724;BME280;17473;52.286;20.930;2022-12-17T08:22:22;100734.81;;;-1.61;74.27
30724;BME280;17473;52.286;20.930;2022-12-17T08:25:08;100743.47;;;-1.70;74.26
30724;BME280;17473;52.286;20.930;2022-12-17T08:27:59;100737.59;;;-1.78;74.22
30724;BME280;17473;52.286;20.930;2022-12-17T08:31:04;100756.00;;;-1.75;73.92
30724;BME280;17473;52.286;20.930;2022-12-17T08:33:50;100758.44;;;-1.77;74.15
30724;BME280;17473;52.286;20.930;2022-12-17T08:36:36;100767.81;;;-1.68;74.26
30724;BME280;17473;52.286;20.930;2022-12-17T08:39:22;100768.44;;;-1.71;73.95
30724;BME280;17473;52.286;20.930;2022-12-17T08:42:07;100767.56;;;-1.71;73.44
30724;BME280;17473;52.286;20.930;2022-12-17T08:44:53;100766.25;;;-1.66;73.36
30724;BME280;17473;52.286;20.930;2022-12-17T08:47:39;100765.56;;;-1.45;73.00
30724;BME280;17473;52.286;20.930;2022-12-17T08:50:30;100770.97;;;-1.52;72.74
30724;BME280;17473;52.286;20.930;2022-12-17T08:53:15;100765.66;;;-1.53;73.07
30724;BME280;17473;52.286;20.930;2022-12-17T08:56:01;100775.91;;;-1.55;72.74
30724;BME280;17473;52.286;20.930;2022-12-17T08:58:46;100768.53;;;-1.50;72.29
30724;BME280;17473;52.286;20.930;2022-12-17T09:01:32;100783.31;;;-1.49;72.63
30724;BME280;17473;52.286;20.930;2022-12-17T09:04:18;100795.09;;;-1.53;72.50
30724;BME280;17473;52.286;20.930;2022-12-17T09:07:03;100801.44;;;-1.49;72.36
30724;BME280;17473;52.286;20.930;2022-12-17T09:09:49;100795.69;;;-1.55;72.69
30724;BME280;17473;52.286;20.930;2022-12-17T09:12:35;100799.97;;;-1.56;72.63
30724;BME280;17473;52.286;20.930;2022-12-17T09:15:26;100800.06;;;-1.65;72.60
30724;BME280;17473;52.286;20.930;2022-12-17T09:18:17;100794.63;;;-1.68;72.58
30724;BME280;17473;52.286;20.930;2022-12-17T09:21:16;100803.06;;;-1.60;72.84
30724;BME280;17473;52.286;20.930;2022-12-17T09:24:02;100808.13;;;-1.62;72.62
30724;BME280;17473;52.286;20.930;2022-12-17T09:26:47;100813.22;;;-1.53;72.44
30724;BME280;17473;52.286;20.930;2022-12-17T09:29:33;100806.69;;;-1.58;71.95
30724;BME280;17473;52.286;20.930;2022-12-17T09:32:19;100826.53;;;-1.59;72.55
30724;BME280;17473;52.286;20.930;2022-12-17T09:35:05;100826.84;;;-1.45;71.53
30724;BME280;17473;52.286;20.930;2022-12-17T09:37:55;100828.38;;;-1.47;71.58
30724;BME280;17473;52.286;20.930;2022-12-17T09:40:46;100825.66;;;-1.49;71.95
30724;BME280;17473;52.286;20.930;2022-12-17T09:44:23;100824.66;;;-1.40;71.81
30724;BME280;17473;52.286;20.930;2022-12-17T09:50:28;100819.47;;;-1.40;71.80
30724;BME280;17473;52.286;20.930;2022-12-17T09:53:50;100821.94;;;-1.42;72.03
30724;BME280;17473;52.286;20.930;2022-12-17T09:56:37;100824.00;;;-1.38;71.42
30724;BME280;17473;52.286;20.930;2022-12-17T09:59:32;100832.19;;;-1.33;71.27
30724;BME280;17473;52.286;20.930;2022-12-17T10:02:29;100833.16;;;-1.22;70.61
30724;BME280;17473;52.286;20.930;2022-12-17T10:05:25;100813.44;;;-1.20;70.33
30724;BME280;17473;52.286;20.930;2022-12-17T10:08:17;100831.69;;;-1.29;70.42
30724;BME280;17473;52.286;20.930;2022-12-17T10:11:23;100837.00;;;-1.28;69.97
30724;BME280;17473;52.286;20.930;2022-12-17T10:14:22;100827.81;;;-1.24;69.96
30724;BME280;17473;52.286;20.930;2022-12-17T10:17:18;100826.81;;;-0.45;70.11
30724;BME280;17473;52.286;20.930;2022-12-17T10:23:30;100851.44;;;-0.19;69.67
30724;BME280;17473;52.286;20.930;2022-12-17T10:26:28;100856.25;;;-0.44;69.46
30724;BME280;17473;52.286;20.930;2022-12-17T10:29:24;100859.88;;;-0.42;68.61
30724;BME280;17473;52.286;20.930;2022-12-17T10:37:52;100866.63;;;-0.65;67.54
30724;BME280;17473;52.286;20.930;2022-12-17T10:40:38;100862.47;;;-0.73;67.87
30724;BME280;17473;52.286;20.930;2022-12-17T10:43:37;100871.41;;;-0.70;67.74
30724;BME280;17473;52.286;20.930;2022-12-17T10:46:31;100877.63;;;-0.57;67.32
30724;BME280;17473;52.286;20.930;2022-12-17T10:49:22;100885.69;;;-0.54;67.60
30724;BME280;17473;52.286;20.930;2022-12-17T10:52:27;100870.66;;;-0.58;67.64
30724;BME280;17473;52.286;20.930;2022-12-17T10:55:27;100874.16;;;-0.48;67.49
30724;BME280;17473;52.286;20.930;2022-12-17T10:58:24;100867.75;;;-0.72;67.69
30724;BME280;17473;52.286;20.930;2022-12-17T11:01:22;100883.06;;;-0.75;68.22
30724;BME280;17473;52.286;20.930;2022-12-17T11:04:31;100890.44;;;-0.80;68.46
30724;BME280;17473;52.286;20.930;2022-12-17T11:07:36;100885.50;;;-0.87;68.42
30724;BME280;17473;52.286;20.930;2022-12-17T11:10:29;100891.00;;;-0.73;67.73
30724;BME280;17473;52.286;20.930;2022-12-17T11:13:32;100893.56;;;-0.84;67.90
30724;BME280;17473;52.286;20.930;2022-12-17T11:16:43;100886.25;;;-0.88;68.28
30724;BME280;17473;52.286;20.930;2022-12-17T11:19:39;100893.97;;;-0.69;67.94
30724;BME280;17473;52.286;20.930;2022-12-17T11:22:36;100886.94;;;-0.80;68.27
30724;BME280;17473;52.286;20.930;2022-12-17T11:25:53;100884.06;;;-0.83;68.43
30724;BME280;17473;52.286;20.930;2022-12-17T11:28:41;100870.84;;;-0.86;68.37
30724;BME280;17473;52.286;20.930;2022-12-17T11:35:02;100883.16;;;-0.94;68.59
30724;BME280;17473;52.286;20.930;2022-12-17T11:37:59;100888.97;;;-0.97;68.75
30724;BME280;17473;52.286;20.930;2022-12-17T11:40:57;100898.97;;;-0.91;68.47
30724;BME280;17473;52.286;20.930;2022-12-17T11:44:05;100910.78;;;-0.95;68.78
30724;BME280;17473;52.286;20.930;2022-12-17T11:47:23;100910.22;;;-1.01;68.80
30724;BME280;17473;52.286;20.930;2022-12-17T11:50:32;100912.97;;;-0.99;68.96
30724;BME280;17473;52.286;20.930;2022-12-17T11:54:00;100913.44;;;-1.03;69.29
30724;BME280;17473;52.286;20.930;2022-12-17T11:57:04;100909.44;;;-1.00;69.26
30724;BME280;17473;52.286;20.930;2022-12-17T12:06:41;100923.34;;;-0.89;68.78
30724;BME280;17473;52.286;20.930;2022-12-17T12:09:47;100931.81;;;-0.81;69.19
30724;BME280;17473;52.286;20.930;2022-12-17T12:12:51;100924.16;;;-0.80;68.95
30724;BME280;17473;52.286;20.930;2022-12-17T12:16:12;100936.53;;;-0.96;69.58
30724;BME280;17473;52.286;20.930;2022-12-17T12:22:49;100933.94;;;-0.96;69.96
30724;BME280;17473;52.286;20.930;2022-12-17T12:26:03;100937.06;;;-1.00;70.06
30724;BME280;17473;52.286;20.930;2022-12-17T12:36:03;100946.44;;;-1.11;70.88
30724;BME280;17473;52.286;20.930;2022-12-17T12:38:54;100957.88;;;-1.09;71.01
30724;BME280;17473;52.286;20.930;2022-12-17T12:42:15;100966.84;;;-1.05;70.69
30724;BME280;17473;52.286;20.930;2022-12-17T12:51:26;100968.66;;;-1.04;70.76
30724;BME280;17473;52.286;20.930;2022-12-17T12:54:49;100967.34;;;-1.09;70.80
30724;BME280;17473;52.286;20.930;2022-12-17T12:58:26;100971.03;;;-0.97;70.34
30724;BME280;17473;52.286;20.930;2022-12-17T13:01:12;100973.84;;;-1.04;71.09
30724;BME280;17473;52.286;20.930;2022-12-17T13:04:01;100972.66;;;-1.08;71.06
30724;BME280;17473;52.286;20.930;2022-12-17T13:06:58;100968.25;;;-1.09;70.56
30724;BME280;17473;52.286;20.930;2022-12-17T13:14:58;100979.16;;;-1.03;70.79
30724;BME280;17473;52.286;20.930;2022-12-17T13:18:14;100981.63;;;-1.04;70.60
30724;BME280;17473;52.286;20.930;2022-12-17T13:21:01;100985.16;;;-0.93;70.58
30724;BME280;17473;52.286;20.930;2022-12-17T13:23:33;100985.75;;;-1.06;70.45
30724;BME280;17473;52.286;20.930;2022-12-17T13:28:56;100997.00;;;-0.87;69.82
30724;BME280;17473;52.286;20.930;2022-12-17T13:35:16;100982.19;;;-0.69;70.22
30724;BME280;17473;52.286;20.930;2022-12-17T13:41:12;101000.31;;;-0.98;71.14
30724;BME280;17473;52.286;20.930;2022-12-17T13:43:50;101000.53;;;-1.05;71.22
30724;BME280;17473;52.286;20.930;2022-12-17T13:46:39;100999.50;;;-1.07;71.12
30724;BME280;17473;52.286;20.930;2022-12-17T13:49:25;101003.13;;;-1.05;70.47
30724;BME280;17473;52.286;20.930;2022-12-17T13:52:17;101010.25;;;-1.13;70.25
30724;BME280;17473;52.286;20.930;2022-12-17T13:54:44;101005.59;;;-1.07;69.79
30724;BME280;17473;52.286;20.930;2022-12-17T13:57:20;101005.41;;;-1.19;69.55
30724;BME280;17473;52.286;20.930;2022-12-17T13:59:59;101009.41;;;-1.22;69.00
30724;BME280;17473;52.286;20.930;2022-12-17T14:02:31;101011.06;;;-1.23;69.29
30724;BME280;17473;52.286;20.930;2022-12-17T14:05:04;101012.69;;;-1.34;69.03
30724;BME280;17473;52.286;20.930;2022-12-17T14:07:37;101016.41;;;-1.40;69.44
30724;BME280;17473;52.286;20.930;2022-12-17T14:10:16;101023.63;;;-1.47;69.34
30724;BME280;17473;52.286;20.930;2022-12-17T14:12:44;101032.63;;;-1.52;69.57
30724;BME280;17473;52.286;20.930;2022-12-17T14:15:23;101026.88;;;-1.58;69.23
30724;BME280;17473;52.286;20.930;2022-12-17T14:17:53;101039.41;;;-1.63;69.68
30724;BME280;17473;52.286;20.930;2022-12-17T14:20:33;101040.34;;;-1.62;69.05
30724;BME280;17473;52.286;20.930;2022-12-17T14:23:20;101041.44;;;-1.69;69.51
30724;BME280;17473;52.286;20.930;2022-12-17T14:25:49;101044.66;;;-1.71;69.60
30724;BME280;17473;52.286;20.930;2022-12-17T14:28:34;101052.91;;;-1.76;69.56
30724;BME280;17473;52.286;20.930;2022-12-17T14:34:08;101063.22;;;-1.67;69.08
30724;BME280;17473;52.286;20.930;2022-12-17T14:36:42;101074.69;;;-1.74;69.37
30724;BME280;17473;52.286;20.930;2022-12-17T14:39:27;101070.16;;;-1.85;69.41
30724;BME280;17473;52.286;20.930;2022-12-17T14:42:07;101074.13;;;-1.80;69.69
30724;BME280;17473;52.286;20.930;2022-12-17T14:45:04;101081.59;;;-1.83;69.42
30724;BME280;17473;52.286;20.930;2022-12-17T14:47:35;101078.44;;;-1.98;69.88
30724;BME280;17473;52.286;20.930;2022-12-17T14:52:54;101083.63;;;-1.98;70.36
30724;BME280;17473;52.286;20.930;2022-12-17T14:55:37;101085.13;;;-1.91;70.30
30724;BME280;17473;52.286;20.930;2022-12-17T15:00:52;101096.88;;;-1.95;70.72
30724;BME280;17473;52.286;20.930;2022-12-17T15:03:28;101094.28;;;-1.95;70.12
30724;BME280;17473;52.286;20.930;2022-12-17T15:06:12;101088.47;;;-1.92;70.39
30724;BME280;17473;52.286;20.930;2022-12-17T15:08:44;101090.66;;;-2.06;70.20
30724;BME280;17473;52.286;20.930;2022-12-17T15:11:15;101093.72;;;-2.10;70.40
30724;BME280;17473;52.286;20.930;2022-12-17T15:13:42;101106.19;;;-2.06;70.53
30724;BME280;17473;52.286;20.930;2022-12-17T15:16:10;101100.13;;;-2.15;70.36
30724;BME280;17473;52.286;20.930;2022-12-17T15:18:37;101104.28;;;-2.17;70.74
30724;BME280;17473;52.286;20.930;2022-12-17T15:21:05;101115.19;;;-2.11;70.64
30724;BME280;17473;52.286;20.930;2022-12-17T15:23:32;101115.34;;;-2.09;70.19
30724;BME280;17473;52.286;20.930;2022-12-17T15:25:59;101108.19;;;-2.12;70.32
30724;BME280;17473;52.286;20.930;2022-12-17T15:28:26;101116.72;;;-2.04;70.55
30724;BME280;17473;52.286;20.930;2022-12-17T15:30:53;101118.72;;;-2.19;70.90
30724;BME280;17473;52.286;20.930;2022-12-17T15:33:20;101124.97;;;-2.17;71.34
30724;BME280;17473;52.286;20.930;2022-12-17T15:35:47;101125.56;;;-2.20;70.88
30724;BME280;17473;52.286;20.930;2022-12-17T15:38:14;101124.84;;;-2.27;71.37